sensor_id;sensor_type;location;lat;lon;timestamp;pressure;altitude;pressure_sealevel;temperature;humidity
60920;BME280;59039;52.108;19.942;2023-09-12T00:01:46;100327.64;;;19.56;70.72
60920;BME280;59039;52.108;19.942;2023-09-12T00:04:11;100329.91;;;19.54;70.41
60920;BME280;59039;52.108;19.942;2023-09-12T00:06:37;100327.55;;;19.53;70.29
60920;BME280;59039;52.108;19.942;2023-09-12T00:09:02;100324.80;;;19.52;70.72
60920;BME280;59039;52.108;19.942;2023-09-12T00:11:28;100326.21;;;19.51;70.70
60920;BME280;59039;52.108;19.942;2023-09-12T00:13:53;100319.60;;;19.50;70.65
60920;BME280;59039;52.108;19.942;2023-09-12T00:16:18;100311.17;;;19.48;71.09
60920;BME280;59039;52.108;19.942;2023-09-12T00:18:43;100322.58;;;19.45;71.01
60920;BME280;59039;52.108;19.942;2023-09-12T00:21:09;100321.78;;;19.42;71.35
60920;BME280;59039;52.108;19.942;2023-09-12T00:23:34;100319.37;;;19.39;71.13
60920;BME280;59039;52.108;19.942;2023-09-12T00:25:59;100318.61;;;19.38;71.26
60920;BME280;59039;52.108;19.942;2023-09-12T00:28:24;100320.48;;;19.36;71.33
60920;BME280;59039;52.108;19.942;2023-09-12T00:30:51;100320.77;;;19.34;71.55
60920;BME280;59039;52.108;19.942;2023-09-12T00:33:16;100320.27;;;19.33;71.70
60920;BME280;59039;52.108;19.942;2023-09-12T00:35:43;100318.33;;;19.31;71.85
60920;BME280;59039;52.108;19.942;2023-09-12T00:38:09;100317.41;;;19.28;71.73
60920;BME280;59039;52.108;19.942;2023-09-12T00:40:34;100316.08;;;19.26;72.20
60920;BME280;59039;52.108;19.942;2023-09-12T00:42:59;100316.65;;;19.24;72.43
60920;BME280;59039;52.108;19.942;2023-09-12T00:45:25;100314.61;;;19.21;72.48
60920;BME280;59039;52.108;19.942;2023-09-12T00:47:51;100316.39;;;19.18;72.17
60920;BME280;59039;52.108;19.942;2023-09-12T00:50:17;100313.30;;;19.17;72.60
60920;BME280;59039;52.108;19.942;2023-09-12T00:52:44;100315.94;;;19.15;72.35
60920;BME280;59039;52.108;19.942;2023-09-12T00:55:10;100313.77;;;19.14;72.17
60920;BME280;59039;52.108;19.942;2023-09-12T00:57:36;100315.23;;;19.13;72.01
60920;BME280;59039;52.108;19.942;2023-09-12T01:00:02;100311.60;;;19.11;72.09
60920;BME280;59039;52.108;19.942;2023-09-12T01:02:29;100311.58;;;19.10;71.92
60920;BME280;59039;52.108;19.942;2023-09-12T01:04:54;100309.38;;;19.08;71.74
60920;BME280;59039;52.108;19.942;2023-09-12T01:07:20;100309.71;;;19.07;71.90
60920;BME280;59039;52.108;19.942;2023-09-12T01:09:45;100308.14;;;19.05;71.93
60920;BME280;59039;52.108;19.942;2023-09-12T01:12:10;100312.30;;;19.03;71.61
60920;BME280;59039;52.108;19.942;2023-09-12T01:14:36;100313.58;;;19.01;71.50
60920;BME280;59039;52.108;19.942;2023-09-12T01:17:01;100314.77;;;18.97;71.33
60920;BME280;59039;52.108;19.942;2023-09-12T01:19:26;100310.82;;;18.92;71.55
60920;BME280;59039;52.108;19.942;2023-09-12T01:24:38;100308.48;;;18.80;72.65
60920;BME280;59039;52.108;19.942;2023-09-12T01:27:30;100309.95;;;18.74;72.57
60920;BME280;59039;52.108;19.942;2023-09-12T01:30:04;100307.40;;;18.69;72.57
60920;BME280;59039;52.108;19.942;2023-09-12T01:32:31;100309.22;;;18.65;72.86
60920;BME280;59039;52.108;19.942;2023-09-12T01:34:56;100309.27;;;18.61;73.02
60920;BME280;59039;52.108;19.942;2023-09-12T01:37:22;100307.95;;;18.57;72.68
60920;BME280;59039;52.108;19.942;2023-09-12T01:39:47;100311.96;;;18.56;72.69
60920;BME280;59039;52.108;19.942;2023-09-12T01:42:15;100313.73;;;18.54;72.93
60920;BME280;59039;52.108;19.942;2023-09-12T01:44:43;100315.47;;;18.52;73.10
60920;BME280;59039;52.108;19.942;2023-09-12T01:47:10;100314.84;;;18.50;73.02
60920;BME280;59039;52.108;19.942;2023-09-12T01:49:38;100315.63;;;18.48;72.74
60920;BME280;59039;52.108;19.942;2023-09-12T01:52:05;100313.73;;;18.46;72.72
60920;BME280;59039;52.108;19.942;2023-09-12T01:54:31;100313.09;;;18.44;72.85
60920;BME280;59039;52.108;19.942;2023-09-12T01:56:57;100313.55;;;18.40;73.43
60920;BME280;59039;52.108;19.942;2023-09-12T01:59:23;100315.81;;;18.35;73.10
60920;BME280;59039;52.108;19.942;2023-09-12T02:01:48;100315.23;;;18.32;73.66
60920;BME280;59039;52.108;19.942;2023-09-12T02:04:14;100317.20;;;18.28;73.18
60920;BME280;59039;52.108;19.942;2023-09-12T02:06:39;100315.45;;;18.26;73.39
60920;BME280;59039;52.108;19.942;2023-09-12T02:09:04;100316.35;;;18.24;73.13
60920;BME280;59039;52.108;19.942;2023-09-12T02:11:29;100317.31;;;18.21;73.06
60920;BME280;59039;52.108;19.942;2023-09-12T02:13:54;100314.34;;;18.18;73.59
60920;BME280;59039;52.108;19.942;2023-09-12T02:16:20;100315.56;;;18.14;73.67
60920;BME280;59039;52.108;19.942;2023-09-12T02:18:45;100314.87;;;18.11;73.45
60920;BME280;59039;52.108;19.942;2023-09-12T02:21:10;100312.86;;;18.09;73.69
60920;BME280;59039;52.108;19.942;2023-09-12T02:23:35;100314.55;;;18.06;73.56
60920;BME280;59039;52.108;19.942;2023-09-12T02:26:01;100309.98;;;18.03;73.88
60920;BME280;59039;52.108;19.942;2023-09-12T02:28:26;100314.96;;;18.00;73.98
60920;BME280;59039;52.108;19.942;2023-09-12T02:30:51;100312.89;;;17.98;73.72
60920;BME280;59039;52.108;19.942;2023-09-12T02:33:16;100315.03;;;17.95;73.67
60920;BME280;59039;52.108;19.942;2023-09-12T02:35:41;100313.13;;;17.93;73.94
60920;BME280;59039;52.108;19.942;2023-09-12T02:38:07;100311.53;;;17.90;73.84
60920;BME280;59039;52.108;19.942;2023-09-12T02:40:32;100311.20;;;17.87;73.47
60920;BME280;59039;52.108;19.942;2023-09-12T02:42:57;100310.26;;;17.84;73.41
60920;BME280;59039;52.108;19.942;2023-09-12T02:45:22;100311.20;;;17.82;73.55
60920;BME280;59039;52.108;19.942;2023-09-12T02:47:48;100308.67;;;17.78;73.81
60920;BME280;59039;52.108;19.942;2023-09-12T02:50:13;100311.19;;;17.74;73.76
60920;BME280;59039;52.108;19.942;2023-09-12T02:52:38;100309.70;;;17.72;73.92
60920;BME280;59039;52.108;19.942;2023-09-12T02:55:04;100315.43;;;17.69;74.06
60920;BME280;59039;52.108;19.942;2023-09-12T02:57:29;100316.90;;;17.66;74.56
60920;BME280;59039;52.108;19.942;2023-09-12T02:59:54;100318.44;;;17.63;74.52
60920;BME280;59039;52.108;19.942;2023-09-12T03:02:19;100313.86;;;17.60;74.31
60920;BME280;59039;52.108;19.942;2023-09-12T03:04:44;100316.60;;;17.59;74.28
60920;BME280;59039;52.108;19.942;2023-09-12T03:07:10;100317.82;;;17.58;74.40
60920;BME280;59039;52.108;19.942;2023-09-12T03:09:35;100314.98;;;17.56;74.71
60920;BME280;59039;52.108;19.942;2023-09-12T03:12:01;100313.02;;;17.53;74.77
60920;BME280;59039;52.108;19.942;2023-09-12T03:14:27;100314.12;;;17.52;74.60
60920;BME280;59039;52.108;19.942;2023-09-12T03:16:53;100316.10;;;17.51;74.69
60920;BME280;59039;52.108;19.942;2023-09-12T03:19:18;100315.33;;;17.50;74.73
60920;BME280;59039;52.108;19.942;2023-09-12T03:21:43;100317.95;;;17.49;74.73
60920;BME280;59039;52.108;19.942;2023-09-12T03:24:08;100318.07;;;17.48;74.84
60920;BME280;59039;52.108;19.942;2023-09-12T03:26:35;100320.35;;;17.48;75.05
60920;BME280;59039;52.108;19.942;2023-09-12T03:29:02;100320.85;;;17.47;74.98
60920;BME280;59039;52.108;19.942;2023-09-12T03:31:27;100320.31;;;17.46;75.06
60920;BME280;59039;52.108;19.942;2023-09-12T03:33:53;100322.91;;;17.44;75.19
60920;BME280;59039;52.108;19.942;2023-09-12T03:36:18;100322.59;;;17.42;75.07
60920;BME280;59039;52.108;19.942;2023-09-12T03:38:43;100325.59;;;17.40;74.86
60920;BME280;59039;52.108;19.942;2023-09-12T03:41:08;100328.80;;;17.40;74.91
60920;BME280;59039;52.108;19.942;2023-09-12T03:43:34;100328.83;;;17.38;75.34
60920;BME280;59039;52.108;19.942;2023-09-12T03:45:59;100326.66;;;17.37;75.27
60920;BME280;59039;52.108;19.942;2023-09-12T03:48:24;100325.94;;;17.35;75.08
60920;BME280;59039;52.108;19.942;2023-09-12T03:50:50;100326.46;;;17.34;75.60
60920;BME280;59039;52.108;19.942;2023-09-12T03:53:15;100326.34;;;17.32;75.74
60920;BME280;59039;52.108;19.942;2023-09-12T03:55:41;100326.23;;;17.30;75.85
60920;BME280;59039;52.108;19.942;2023-09-12T03:58:06;100324.88;;;17.29;75.64
60920;BME280;59039;52.108;19.942;2023-09-12T04:00:31;100332.23;;;17.29;75.49
60920;BME280;59039;52.108;19.942;2023-09-12T04:02:57;100333.80;;;17.28;75.39
60920;BME280;59039;52.108;19.942;2023-09-12T04:05:22;100332.63;;;17.28;75.42
60920;BME280;59039;52.108;19.942;2023-09-12T04:07:47;100336.29;;;17.28;75.10
60920;BME280;59039;52.108;19.942;2023-09-12T04:10:13;100333.96;;;17.28;75.34
60920;BME280;59039;52.108;19.942;2023-09-12T04:12:38;100332.39;;;17.26;75.52
60920;BME280;59039;52.108;19.942;2023-09-12T04:15:03;100329.29;;;17.23;75.12
60920;BME280;59039;52.108;19.942;2023-09-12T04:17:29;100330.20;;;17.22;75.54
60920;BME280;59039;52.108;19.942;2023-09-12T04:19:54;100333.02;;;17.20;76.00
60920;BME280;59039;52.108;19.942;2023-09-12T04:22:19;100333.40;;;17.20;75.75
60920;BME280;59039;52.108;19.942;2023-09-12T04:24:44;100335.89;;;17.19;75.98
60920;BME280;59039;52.108;19.942;2023-09-12T04:27:09;100333.93;;;17.19;76.18
60920;BME280;59039;52.108;19.942;2023-09-12T04:29:35;100333.18;;;17.19;75.96
60920;BME280;59039;52.108;19.942;2023-09-12T04:32:04;100333.73;;;17.19;76.08
60920;BME280;59039;52.108;19.942;2023-09-12T04:34:29;100328.35;;;17.18;76.09
60920;BME280;59039;52.108;19.942;2023-09-12T04:36:55;100329.41;;;17.18;75.91
60920;BME280;59039;52.108;19.942;2023-09-12T04:39:20;100328.91;;;17.18;75.76
60920;BME280;59039;52.108;19.942;2023-09-12T04:41:46;100332.33;;;17.18;75.99
60920;BME280;59039;52.108;19.942;2023-09-12T04:44:11;100333.30;;;17.18;75.73
60920;BME280;59039;52.108;19.942;2023-09-12T04:46:36;100336.27;;;17.19;75.72
60920;BME280;59039;52.108;19.942;2023-09-12T04:49:01;100336.57;;;17.19;75.62
60920;BME280;59039;52.108;19.942;2023-09-12T04:51:27;100343.53;;;17.21;75.70
60920;BME280;59039;52.108;19.942;2023-09-12T04:53:52;100341.81;;;17.21;75.89
60920;BME280;59039;52.108;19.942;2023-09-12T04:56:17;100345.71;;;17.22;75.90
60920;BME280;59039;52.108;19.942;2023-09-12T04:58:42;100347.23;;;17.24;75.88
60920;BME280;59039;52.108;19.942;2023-09-12T05:01:08;100346.29;;;17.26;75.98
60920;BME280;59039;52.108;19.942;2023-09-12T05:03:33;100346.52;;;17.29;75.60
60920;BME280;59039;52.108;19.942;2023-09-12T05:05:58;100347.72;;;17.31;75.56
60920;BME280;59039;52.108;19.942;2023-09-12T05:08:24;100347.95;;;17.33;75.51
60920;BME280;59039;52.108;19.942;2023-09-12T05:10:49;100350.38;;;17.36;75.49
60920;BME280;59039;52.108;19.942;2023-09-12T05:13:14;100348.68;;;17.37;75.58
60920;BME280;59039;52.108;19.942;2023-09-12T05:15:41;100350.55;;;17.39;75.70
60920;BME280;59039;52.108;19.942;2023-09-12T05:18:07;100350.45;;;17.41;75.63
60920;BME280;59039;52.108;19.942;2023-09-12T05:20:33;100354.09;;;17.42;75.74
60920;BME280;59039;52.108;19.942;2023-09-12T05:22:58;100356.70;;;17.43;76.01
60920;BME280;59039;52.108;19.942;2023-09-12T05:25:23;100356.95;;;17.46;75.82
60920;BME280;59039;52.108;19.942;2023-09-12T05:27:48;100355.31;;;17.49;75.73
60920;BME280;59039;52.108;19.942;2023-09-12T05:30:14;100354.17;;;17.54;76.27
60920;BME280;59039;52.108;19.942;2023-09-12T05:32:41;100357.86;;;17.58;76.34
60920;BME280;59039;52.108;19.942;2023-09-12T05:35:06;100361.02;;;17.62;76.29
60920;BME280;59039;52.108;19.942;2023-09-12T05:37:31;100362.10;;;17.65;76.37
60920;BME280;59039;52.108;19.942;2023-09-12T05:39:57;100360.20;;;17.67;76.26
60920;BME280;59039;52.108;19.942;2023-09-12T05:42:22;100360.46;;;17.69;76.30
60920;BME280;59039;52.108;19.942;2023-09-12T05:44:48;100360.73;;;17.71;76.51
60920;BME280;59039;52.108;19.942;2023-09-12T05:47:13;100362.40;;;17.74;76.42
60920;BME280;59039;52.108;19.942;2023-09-12T05:49:39;100364.95;;;17.77;76.56
60920;BME280;59039;52.108;19.942;2023-09-12T05:52:04;100364.16;;;17.80;76.60
60920;BME280;59039;52.108;19.942;2023-09-12T05:54:29;100364.17;;;17.83;76.56
60920;BME280;59039;52.108;19.942;2023-09-12T05:56:54;100367.11;;;17.87;76.58
60920;BME280;59039;52.108;19.942;2023-09-12T05:59:20;100365.68;;;17.91;76.61
60920;BME280;59039;52.108;19.942;2023-09-12T06:01:45;100366.61;;;17.97;76.55
60920;BME280;59039;52.108;19.942;2023-09-12T06:04:10;100363.15;;;18.01;76.76
60920;BME280;59039;52.108;19.942;2023-09-12T06:06:35;100366.22;;;18.07;76.61
60920;BME280;59039;52.108;19.942;2023-09-12T06:09:01;100365.05;;;18.12;76.88
60920;BME280;59039;52.108;19.942;2023-09-12T06:11:26;100364.63;;;18.18;76.83
60920;BME280;59039;52.108;19.942;2023-09-12T06:13:51;100368.78;;;18.24;76.67
60920;BME280;59039;52.108;19.942;2023-09-12T06:16:16;100366.60;;;18.29;76.74
60920;BME280;59039;52.108;19.942;2023-09-12T06:18:41;100363.98;;;18.35;76.78
60920;BME280;59039;52.108;19.942;2023-09-12T06:21:07;100367.17;;;18.41;76.71
60920;BME280;59039;52.108;19.942;2023-09-12T06:23:32;100367.83;;;18.47;76.63
60920;BME280;59039;52.108;19.942;2023-09-12T06:25:57;100369.80;;;18.54;76.68
60920;BME280;59039;52.108;19.942;2023-09-12T06:28:26;100368.77;;;18.65;77.01
60920;BME280;59039;52.108;19.942;2023-09-12T06:30:52;100367.94;;;18.73;77.14
60920;BME280;59039;52.108;19.942;2023-09-12T06:33:17;100366.73;;;18.84;76.80
60920;BME280;59039;52.108;19.942;2023-09-12T06:35:42;100373.53;;;18.94;76.74
60920;BME280;59039;52.108;19.942;2023-09-12T06:38:07;100375.02;;;19.05;76.92
60920;BME280;59039;52.108;19.942;2023-09-12T06:40:33;100378.80;;;19.15;76.91
60920;BME280;59039;52.108;19.942;2023-09-12T06:42:58;100376.59;;;19.27;76.83
60920;BME280;59039;52.108;19.942;2023-09-12T06:45:23;100379.59;;;19.38;76.71
60920;BME280;59039;52.108;19.942;2023-09-12T06:47:48;100379.48;;;19.50;76.30
60920;BME280;59039;52.108;19.942;2023-09-12T06:50:13;100381.70;;;19.60;76.11
60920;BME280;59039;52.108;19.942;2023-09-12T06:52:39;100384.85;;;19.72;75.68
60920;BME280;59039;52.108;19.942;2023-09-12T06:55:04;100383.30;;;19.83;75.38
60920;BME280;59039;52.108;19.942;2023-09-12T06:57:30;100384.02;;;19.93;74.87
60920;BME280;59039;52.108;19.942;2023-09-12T06:59:55;100383.83;;;20.03;74.80
60920;BME280;59039;52.108;19.942;2023-09-12T07:02:20;100380.53;;;20.12;74.56
60920;BME280;59039;52.108;19.942;2023-09-12T07:04:45;100386.78;;;20.21;74.52
60920;BME280;59039;52.108;19.942;2023-09-12T07:07:11;100388.67;;;20.31;74.25
60920;BME280;59039;52.108;19.942;2023-09-12T07:09:36;100388.17;;;20.39;74.05
60920;BME280;59039;52.108;19.942;2023-09-12T07:12:01;100389.18;;;20.48;73.96
60920;BME280;59039;52.108;19.942;2023-09-12T07:14:26;100383.55;;;20.56;73.74
60920;BME280;59039;52.108;19.942;2023-09-12T07:16:51;100382.43;;;20.67;73.64
60920;BME280;59039;52.108;19.942;2023-09-12T07:19:17;100379.19;;;20.76;73.52
60920;BME280;59039;52.108;19.942;2023-09-12T07:21:42;100379.71;;;20.85;73.27
60920;BME280;59039;52.108;19.942;2023-09-12T07:24:07;100378.47;;;20.94;72.71
60920;BME280;59039;52.108;19.942;2023-09-12T07:26:32;100381.85;;;21.02;72.69
60920;BME280;59039;52.108;19.942;2023-09-12T07:28:58;100385.40;;;21.10;72.55
60920;BME280;59039;52.108;19.942;2023-09-12T07:31:23;100383.23;;;21.16;72.49
60920;BME280;59039;52.108;19.942;2023-09-12T07:33:48;100385.05;;;21.22;72.17
60920;BME280;59039;52.108;19.942;2023-09-12T07:36:13;100386.70;;;21.27;71.71
60920;BME280;59039;52.108;19.942;2023-09-12T07:38:38;100387.02;;;21.34;71.58
60920;BME280;59039;52.108;19.942;2023-09-12T07:41:04;100387.08;;;21.38;71.31
60920;BME280;59039;52.108;19.942;2023-09-12T07:43:29;100383.09;;;21.43;70.93
60920;BME280;59039;52.108;19.942;2023-09-12T07:45:56;100382.67;;;21.47;70.70
60920;BME280;59039;52.108;19.942;2023-09-12T07:48:21;100384.30;;;21.51;70.74
60920;BME280;59039;52.108;19.942;2023-09-12T07:50:46;100385.02;;;21.56;70.22
60920;BME280;59039;52.108;19.942;2023-09-12T07:53:11;100386.75;;;21.61;70.28
60920;BME280;59039;52.108;19.942;2023-09-12T07:55:37;100384.50;;;21.64;70.13
60920;BME280;59039;52.108;19.942;2023-09-12T07:58:03;100383.70;;;21.69;70.11
60920;BME280;59039;52.108;19.942;2023-09-12T08:00:28;100383.01;;;21.73;69.95
60920;BME280;59039;52.108;19.942;2023-09-12T08:02:53;100382.44;;;21.78;69.75
60920;BME280;59039;52.108;19.942;2023-09-12T08:05:18;100377.95;;;21.84;69.90
60920;BME280;59039;52.108;19.942;2023-09-12T08:07:44;100379.27;;;21.88;69.80
60920;BME280;59039;52.108;19.942;2023-09-12T08:10:09;100381.66;;;21.95;69.81
60920;BME280;59039;52.108;19.942;2023-09-12T08:12:36;100382.63;;;22.00;69.29
60920;BME280;59039;52.108;19.942;2023-09-12T08:15:01;100379.26;;;22.03;68.97
60920;BME280;59039;52.108;19.942;2023-09-12T08:17:26;100379.57;;;22.08;68.91
60920;BME280;59039;52.108;19.942;2023-09-12T08:19:52;100379.36;;;22.13;68.78
60920;BME280;59039;52.108;19.942;2023-09-12T08:22:17;100382.86;;;22.19;68.64
60920;BME280;59039;52.108;19.942;2023-09-12T08:24:42;100382.86;;;22.24;68.52
60920;BME280;59039;52.108;19.942;2023-09-12T08:27:08;100381.91;;;22.29;68.21
60920;BME280;59039;52.108;19.942;2023-09-12T08:29:33;100384.39;;;22.34;67.95
60920;BME280;59039;52.108;19.942;2023-09-12T08:31:59;100377.51;;;22.40;67.87
60920;BME280;59039;52.108;19.942;2023-09-12T08:34:25;100378.65;;;22.45;67.79
60920;BME280;59039;52.108;19.942;2023-09-12T08:36:50;100376.73;;;22.52;67.62
60920;BME280;59039;52.108;19.942;2023-09-12T08:39:17;100378.40;;;22.58;67.48
60920;BME280;59039;52.108;19.942;2023-09-12T08:41:43;100375.36;;;22.64;67.42
60920;BME280;59039;52.108;19.942;2023-09-12T08:44:08;100378.02;;;22.70;66.82
60920;BME280;59039;52.108;19.942;2023-09-12T08:46:34;100376.05;;;22.76;66.42
60920;BME280;59039;52.108;19.942;2023-09-12T08:48:59;100382.70;;;22.82;66.70
60920;BME280;59039;52.108;19.942;2023-09-12T08:51:25;100382.56;;;22.87;65.99
60920;BME280;59039;52.108;19.942;2023-09-12T08:53:51;100382.70;;;22.92;65.23
60920;BME280;59039;52.108;19.942;2023-09-12T08:56:18;100382.03;;;22.97;64.16
60920;BME280;59039;52.108;19.942;2023-09-12T08:58:44;100381.04;;;23.02;63.61
60920;BME280;59039;52.108;19.942;2023-09-12T09:01:13;100379.83;;;23.07;64.00
60920;BME280;59039;52.108;19.942;2023-09-12T09:03:41;100378.08;;;23.11;64.05
60920;BME280;59039;52.108;19.942;2023-09-12T09:06:08;100378.13;;;23.16;63.63
60920;BME280;59039;52.108;19.942;2023-09-12T09:08:34;100375.23;;;23.21;63.24
60920;BME280;59039;52.108;19.942;2023-09-12T09:11:00;100375.64;;;23.25;62.57
60920;BME280;59039;52.108;19.942;2023-09-12T09:13:25;100369.32;;;23.30;62.53
60920;BME280;59039;52.108;19.942;2023-09-12T09:16:09;100371.00;;;23.36;62.49
60920;BME280;59039;52.108;19.942;2023-09-12T09:21:21;100364.09;;;23.46;61.57
60920;BME280;59039;52.108;19.942;2023-09-12T09:23:47;100367.65;;;23.51;61.53
60920;BME280;59039;52.108;19.942;2023-09-12T09:26:12;100365.44;;;23.56;61.52
60920;BME280;59039;52.108;19.942;2023-09-12T09:28:37;100364.10;;;23.61;61.06
60920;BME280;59039;52.108;19.942;2023-09-12T09:31:02;100361.48;;;23.65;60.68
60920;BME280;59039;52.108;19.942;2023-09-12T09:33:34;100360.96;;;23.69;59.88
60920;BME280;59039;52.108;19.942;2023-09-12T09:36:03;100356.14;;;23.74;59.20
60920;BME280;59039;52.108;19.942;2023-09-12T09:38:29;100356.89;;;23.76;58.55
60920;BME280;59039;52.108;19.942;2023-09-12T09:40:55;100354.34;;;23.82;58.97
60920;BME280;59039;52.108;19.942;2023-09-12T09:43:21;100356.51;;;23.87;59.29
60920;BME280;59039;52.108;19.942;2023-09-12T09:45:46;100356.64;;;23.90;58.46
60920;BME280;59039;52.108;19.942;2023-09-12T09:50:44;100355.54;;;23.99;57.82
60920;BME280;59039;52.108;19.942;2023-09-12T09:53:09;100350.77;;;24.02;56.87
60920;BME280;59039;52.108;19.942;2023-09-12T09:55:34;100350.06;;;24.05;56.75
60920;BME280;59039;52.108;19.942;2023-09-12T09:57:59;100349.04;;;24.09;56.76
60920;BME280;59039;52.108;19.942;2023-09-12T10:00:25;100349.70;;;24.14;57.10
60920;BME280;59039;52.108;19.942;2023-09-12T10:02:53;100351.63;;;24.20;56.84
60920;BME280;59039;52.108;19.942;2023-09-12T10:05:20;100351.28;;;24.24;56.62
60920;BME280;59039;52.108;19.942;2023-09-12T10:07:48;100349.30;;;24.28;56.44
60920;BME280;59039;52.108;19.942;2023-09-12T10:10:14;100345.96;;;24.33;55.88
60920;BME280;59039;52.108;19.942;2023-09-12T10:12:54;100340.30;;;24.42;55.69
60920;BME280;59039;52.108;19.942;2023-09-12T10:15:21;100340.31;;;24.56;55.06
60920;BME280;59039;52.108;19.942;2023-09-12T10:17:56;100334.42;;;24.71;55.39
60920;BME280;59039;52.108;19.942;2023-09-12T10:20:25;100333.49;;;24.88;54.79
60920;BME280;59039;52.108;19.942;2023-09-12T10:23:01;100331.56;;;25.02;54.60
60920;BME280;59039;52.108;19.942;2023-09-12T10:25:29;100333.70;;;25.13;54.57
60920;BME280;59039;52.108;19.942;2023-09-12T10:27:55;100336.42;;;25.19;54.70
60920;BME280;59039;52.108;19.942;2023-09-12T10:30:22;100335.21;;;25.23;54.18
60920;BME280;59039;52.108;19.942;2023-09-12T10:32:48;100332.46;;;25.25;53.75
60920;BME280;59039;52.108;19.942;2023-09-12T10:35:14;100330.23;;;25.28;53.67
60920;BME280;59039;52.108;19.942;2023-09-12T10:37:41;100330.63;;;25.29;53.30
60920;BME280;59039;52.108;19.942;2023-09-12T10:40:08;100332.71;;;25.30;53.30
60920;BME280;59039;52.108;19.942;2023-09-12T10:42:34;100332.13;;;25.32;53.07
60920;BME280;59039;52.108;19.942;2023-09-12T10:45:00;100331.69;;;25.33;52.40
60920;BME280;59039;52.108;19.942;2023-09-12T10:47:26;100324.14;;;25.34;52.35
60920;BME280;59039;52.108;19.942;2023-09-12T10:49:52;100320.29;;;25.36;52.45
60920;BME280;59039;52.108;19.942;2023-09-12T10:52:27;100320.92;;;25.38;52.34
60920;BME280;59039;52.108;19.942;2023-09-12T10:54:53;100321.50;;;25.39;51.80
60920;BME280;59039;52.108;19.942;2023-09-12T10:57:19;100320.23;;;25.40;51.97
60920;BME280;59039;52.108;19.942;2023-09-12T11:02:32;100323.04;;;25.46;51.45
60920;BME280;59039;52.108;19.942;2023-09-12T11:04:59;100325.33;;;25.50;51.38
60920;BME280;59039;52.108;19.942;2023-09-12T11:12:39;100320.64;;;25.57;50.69
60920;BME280;59039;52.108;19.942;2023-09-12T11:15:05;100320.15;;;25.58;50.93
60920;BME280;59039;52.108;19.942;2023-09-12T11:17:37;100321.28;;;25.59;51.01
60920;BME280;59039;52.108;19.942;2023-09-12T11:20:03;100321.63;;;25.60;50.73
60920;BME280;59039;52.108;19.942;2023-09-12T11:22:30;100320.73;;;25.63;50.23
60920;BME280;59039;52.108;19.942;2023-09-12T11:24:55;100322.06;;;25.68;49.98
60920;BME280;59039;52.108;19.942;2023-09-12T11:27:21;100319.33;;;25.72;49.59
60920;BME280;59039;52.108;19.942;2023-09-12T11:29:46;100320.04;;;25.74;49.64
60920;BME280;59039;52.108;19.942;2023-09-12T11:32:25;100316.56;;;25.76;49.75
60920;BME280;59039;52.108;19.942;2023-09-12T11:34:52;100320.49;;;25.78;49.83
60920;BME280;59039;52.108;19.942;2023-09-12T11:37:25;100323.45;;;25.79;49.82
60920;BME280;59039;52.108;19.942;2023-09-12T11:39:50;100316.55;;;25.79;49.81
60920;BME280;59039;52.108;19.942;2023-09-12T11:42:16;100318.52;;;25.80;49.87
60920;BME280;59039;52.108;19.942;2023-09-12T11:44:41;100314.34;;;25.80;49.51
60920;BME280;59039;52.108;19.942;2023-09-12T11:47:08;100314.12;;;25.80;49.83
60920;BME280;59039;52.108;19.942;2023-09-12T11:49:39;100311.56;;;25.81;49.42
60920;BME280;59039;52.108;19.942;2023-09-12T11:52:13;100319.94;;;25.83;49.54
60920;BME280;59039;52.108;19.942;2023-09-12T11:54:40;100321.13;;;25.86;49.79
60920;BME280;59039;52.108;19.942;2023-09-12T11:57:07;100319.29;;;25.86;49.53
60920;BME280;59039;52.108;19.942;2023-09-12T11:59:33;100317.48;;;25.86;49.12
60920;BME280;59039;52.108;19.942;2023-09-12T12:02:06;100315.80;;;25.89;49.32
60920;BME280;59039;52.108;19.942;2023-09-12T12:04:31;100310.25;;;25.90;48.87
60920;BME280;59039;52.108;19.942;2023-09-12T12:06:56;100308.89;;;25.92;48.71
60920;BME280;59039;52.108;19.942;2023-09-12T12:09:22;100309.27;;;25.95;48.67
60920;BME280;59039;52.108;19.942;2023-09-12T12:11:47;100304.46;;;26.00;48.47
60920;BME280;59039;52.108;19.942;2023-09-12T12:14:13;100300.73;;;26.03;48.24
60920;BME280;59039;52.108;19.942;2023-09-12T12:16:39;100302.69;;;26.05;48.54
60920;BME280;59039;52.108;19.942;2023-09-12T12:19:04;100303.92;;;26.06;48.38
60920;BME280;59039;52.108;19.942;2023-09-12T12:21:29;100306.85;;;26.08;48.50
60920;BME280;59039;52.108;19.942;2023-09-12T12:24:01;100302.52;;;26.08;48.51
60920;BME280;59039;52.108;19.942;2023-09-12T12:26:27;100301.40;;;26.09;47.79
60920;BME280;59039;52.108;19.942;2023-09-12T12:28:52;100298.54;;;26.12;47.96
60920;BME280;59039;52.108;19.942;2023-09-12T12:31:18;100291.08;;;26.16;47.83
60920;BME280;59039;52.108;19.942;2023-09-12T12:33:53;100291.44;;;26.19;47.52
60920;BME280;59039;52.108;19.942;2023-09-12T12:36:19;100291.31;;;26.22;47.46
60920;BME280;59039;52.108;19.942;2023-09-12T12:38:46;100288.16;;;26.24;47.46
60920;BME280;59039;52.108;19.942;2023-09-12T12:41:13;100284.08;;;26.29;47.11
60920;BME280;59039;52.108;19.942;2023-09-12T12:43:42;100280.05;;;26.32;47.14
60920;BME280;59039;52.108;19.942;2023-09-12T12:46:11;100279.79;;;26.34;47.15
60920;BME280;59039;52.108;19.942;2023-09-12T12:48:37;100278.35;;;26.36;47.18
60920;BME280;59039;52.108;19.942;2023-09-12T12:51:24;100273.92;;;26.37;47.03